Airfield :
LOGIN :

Register | Disclaimer

   EN    FR    IT 

 










Legend :    VFR   Marginal VFR   IFR   Intensive IFR   Very Intensive IFR
Visi :
Ceiling :
>= 8 km
>= 3000ft
5 to 8 km
1000 to 3000 ft
1500m to 5 km
500 to 1000 ft
800 to 1500m
200 to 500 ft
< 800m
< 200 ft
Symbols :   Thunderstorms  Fog  Heavy snow  Heavy precipitations  Wind > 20 kt
SIGMETs :     Misc.  Thunderstorms  Icing  Turbulence  Mountain Waves  Volcanic Ashes







- Airport Elevation : 160 ft
- IATA code : LRT
- Download approach charts


LFRH - Lorient Lann Bihoue

CURRENT METAR :
  • 210430Z AUTO 26010KT 4700 BR OVC003 12/12 Q1017 TEMPO 1000 DZ VV///

EXPIRED METARs :
  • 210400Z AUTO 27010KT 4400 BR OVC002 12/12 Q1017 TEMPO 1000 DZ VV///
  • 210330Z AUTO 27011KT 3800 BR OVC002 11/11 Q1017 TEMPO 1000 DZ VV///
  • 210300Z AUTO 27010KT 3700 BR OVC002 12/12 Q1017 TEMPO 1000 DZ VV///
  • 210230Z AUTO 27012KT 4300 -RADZ BR OVC002 12/12 Q1017 TEMPO 1000 DZ VV///
  • 210200Z AUTO 27011KT 4300 -DZ BR OVC003 12/12 Q1016 TEMPO 1000 DZ VV///

TAF TAF LFRH
Valid from the 21 at 00:00 until the 22 at 00:00 UTC


202300Z 2100/2124 28012KT 4000 -RA OVC002
PROB40
TEMPO 2100/2107 1000 DZ VV///
BECMG 2107/2109 3000 DZ OVC003
BECMG 2110/2112 26020G30KT BKN003 OVC005
BECMG 2121/2123 OVC002
No reported NOTAMs for that airfield.



MET'MAP, your aeronautical weather chart ! - Copyright ORBIFLY December 2007 - Disclaimer

ORBIFLY MET'MAP TEAM :

Programming & Development : Alexandra Zaïnal
Concept & Development : Baudouin d'Aumeries
Co-Development & Prog : Marc-Olivier Méhu
Technical & hardware support : Manuel Goepfert

Contact : metmap@orbifly.com




SOURCES & CREDITS :

   NOAA